Weather observations for the past three days for
St. Joseph, Rosecrans Memorial Airport
Imperial (Metric)
Date Time (cdt) Wind (mph) Vis. (mi.) Weather Sky Cond. Temperature (ºF) Relative Humidity Wind Chill (°F) Heat Index (°F) Pressure Precipitation (in)
Air Dwpt 6 hour altimeter (in) sea level (mb) 1 hr 3 hr 6 hr
Max. Min.
04 17:53 NW 10 10.00 Fair CLR 84.9 33.1 15% 82 29.55 1000.0
04 16:53 W 12 10.00 Fair CLR 89.1 37 16% 85 29.54 999.7
04 15:53 S 5 10.00 Mostly Cloudy BKN100 84.9 46 26% 82 29.55 1000.0
04 14:53 S 7 10.00 Fair CLR 84.9 48 28% 83 29.57 1000.5
04 13:53 SW 9 10.00 Fair CLR 84 48 29% 82 29.57 1000.6
04 12:53 SW 9 10.00 Fair CLR 81 46.9 82.9 54 30% 80 29.59 1001.2
04 11:53 S 8 10.00 Fair CLR 78.1 46.9 33% 78 29.6 1001.7
04 10:53 SW 12 10.00 Fair CLR 77 48 36% 78 29.61 1002.0
04 09:53 SW 10 10.00 Fair CLR 71.1 48 44% 29.61 1002.1
04 08:53 SW 12 10.00 Fair CLR 69.1 46.9 45% 29.62 1002.3
04 07:53 S 7 10.00 Fair CLR 63 46.9 56% 29.62 1002.6
04 06:53 Calm 10.00 Fair CLR 54 46 63 50 75% 29.62 1002.4
04 05:53 S 3 10.00 Fair CLR 50 45 83% 29.62 1002.5
04 04:53 S 6 10.00 Fair CLR 55 46 72% 29.64 1003.0
04 03:53 SE 8 10.00 Fair CLR 59 45 60% 29.66 1003.9
04 02:53 E 3 10.00 Fair CLR 62.1 44.1 52% 29.69 1004.6
04 01:53 N 6 10.00 Partly Cloudy SCT100 60.1 45 58% 29.71 1005.6
04 00:53 NW 3 10.00 Fair CLR 60.1 44.1 77 57.9 56% 29.73 1006.1
03 23:53 E 7 10.00 Fair CLR 61 44.1 54% 29.74 1006.5
03 22:53 W 5 10.00 Fair CLR 60.1 48.9 67% 29.78 1008.1
03 21:53 Calm 10.00 Fair CLR 62.1 44.1 52% 29.76 1007.5
03 20:53 N 3 10.00 Fair CLR 64 42.1 45% 29.76 1007.4
03 19:53 NE 6 10.00 Fair CLR 69.1 43 39% 29.76 1007.5
03 18:53 N 8 10.00 Fair CLR 77 42.1 80.1 75 29% 78 29.78 1007.8
03 17:53 N 5 10.00 Fair CLR 80.1 37.9 22% 79 29.78 1008.1
03 16:53 W 7 10.00 Fair CLR 79 37 22% 78 29.8 1008.6
03 15:53 Vrbl 6 10.00 Fair CLR 79 37.9 23% 78 29.82 1009.2
03 14:53 SW 7 10.00 Fair CLR 78.1 39.9 26% 78 29.84 1009.9
03 13:53 W 13 10.00 Fair CLR 75.9 39.9 27% 77 29.85 1010.5
03 12:53 W 13 G 18 10.00 Fair CLR 75 41 75.9 52 29% 77 29.87 1011.3
03 11:53 W 20 10.00 Fair CLR 73.9 42.1 32% 29.89 1011.7
03 10:53 SW 17 G 26 10.00 Fair CLR 69.1 42.1 38% 29.89 1012.1
03 09:53 SW 17 G 23 10.00 Fair CLR 64 39.9 41% 29.92 1013.0
03 08:53 SW 9 10.00 Fair CLR 57 37 47% 29.93 1013.4
03 07:53 S 14 10.00 Fair CLR 54 34 47% 29.92 1013.1
03 06:53 S 16 10.00 Fair CLR 52 32 52 48.9 47% 29.92 1012.8
03 05:53 S 15 10.00 Fair CLR 51.1 32 48% 29.92 1013.1
03 04:53 SW 16 10.00 Fair CLR 52 32 47% 29.94 1013.8
03 03:53 S 14 10.00 Fair CLR 52 32 47% 29.96 1014.3
03 02:53 S 9 10.00 Fair CLR 50 33.1 52% 47 29.97 1014.9
03 01:53 S 8 10.00 Fair CLR 50 33.1 52% 47 29.98 1015.2
03 00:53 S 8 10.00 Fair CLR 51.1 33.1 64.9 48 50% 30 1015.8
02 23:53 S 7 10.00 Fair CLR 48 34 58% 45 30.02 1016.5
02 21:53 S 6 10.00 Fair CLR 51.1 33.1 50% 30.05 1017.6
02 20:53 S 7 0.00 NULL NULL 55.9 32 40% 30.05 1017.4
02 19:53 SW 5 10.00 Fair CLR 62.1 27 26% 30.05 1017.4
02 18:53 NW 8 10.00 Fair CLR 64.9 24.1 66 60.1 21% 30.06 1018.0
02 17:53 W 7 G 18 10.00 Fair CLR 64.9 21.9 19% 30.07 1018.3
02 16:53 W 12 G 21 10.00 Fair CLR 64.9 23 20% 30.08 1018.7
02 15:53 W 12 G 17 10.00 Fair CLR 64.9 23 20% 30.11 1019.7
02 14:53 Calm 10.00 Fair CLR 63 24.1 23% 30.13 1020.4
02 13:53 W 8 10.00 Fair CLR 62.1 24.1 23% 30.15 1021.0
02 12:53 NW 9 G 16 10.00 Fair CLR 61 25 62.1 36 25% 30.17 1021.9
02 11:53 N 6 10.00 Fair CLR 59 25 27% 30.19 1022.3
02 10:53 N 14 G 21 10.00 Fair CLR 57.9 23 26% 30.19 1022.2
02 09:53 Vrbl 3 10.00 Fair CLR 53.1 32 45% 30.19 1022.3
02 08:53 NE 3 10.00 Fair CLR 46.9 35.1 63% 30.19 1022.3
02 07:53 N 3 10.00 Fair CLR 41 34 76% 30.18 1022.2
02 06:53 Calm 10.00 Fair CLR 36 30 41 34 79% 30.17 1021.8
02 05:53 Calm 10.00 Fair CLR 35.1 30 82% 30.15 1021.2
02 04:53 Calm 10.00 Fair CLR 37.9 30 73% 30.14 1020.9
02 03:53 N 8 10.00 Fair CLR 37 30 76% 32 30.13 1020.5
02 02:53 N 10 10.00 Fair CLR 37.9 30 73% 32 30.13 1020.2
02 01:53 N 6 10.00 Fair CLR 39.9 30 68% 36 30.13 1020.3
02 00:53 N 7 10.00 Fair CLR 41 30 62.1 39.9 65% 37 30.14 1020.5
01 23:53 N 6 10.00 Fair CLR 42.1 28 58% 39 30.13 1020.3
01 21:53 N 10 10.00 Fair CLR 50 28 43% 46 30.1 1019.3
01 20:53 N 8 10.00 Fair CLR 52 28 40% 30.07 1018.3
01 19:53 NW 12 10.00 Fair CLR 57.9 25 28% 30.04 1017.4
01 18:53 NW 15 10.00 Fair CLR 62.1 27 66.9 62.1 26% 30.02 1016.7
Date Time (cdt) Wind (mph) Vis. (mi.) Weather Sky Cond. Air Dwpt Max. Min. Relative Humidity Wind Chill (°F) Heat Index (°F) altimeter (in) sea level (mb) 1 hr 3 hr 6 hr
6 hour
Temperature (ºF) Pressure Precipitation (in)